Time;durP1;ratioP1;P1;durP2;ratioP2;P2;SDS_P1;SDS_P2;PMS_P1;PMS_P2;Temp;Humidity;BMP_temperature;BMP_pressure;BME280_temperature;BME280_humidity;BME280_pressure;Samples;Min_cycle;Max_cycle;Signal;HPM_P1;HPM_P2
2023/10/30 00:01:36;;;;;;;8.02;3.58;;;;;;;9.61;nan;100547.91;5014056;28;20033;-69
2023/10/30 00:04:01;;;;;;;6.57;3.00;;;;;;;9.61;nan;100547.91;5015026;28;20021;-69
2023/10/30 00:06:27;;;;;;;7.53;3.33;;;;;;;9.58;nan;100546.50;5013936;28;20018;-69
2023/10/30 00:08:52;;;;;;;7.15;3.28;;;;;;;9.52;nan;100530.78;5015761;28;20033;-68
2023/10/30 00:11:18;;;;;;;7.30;3.33;;;;;;;9.51;nan;100534.44;5014477;28;21001;-71
2023/10/30 00:13:43;;;;;;;7.68;3.20;;;;;;;9.55;nan;100548.75;5014649;28;20068;-69
2023/10/30 00:16:10;;;;;;;6.05;3.42;;;;;;;9.50;nan;100541.50;5017340;28;20071;-70
2023/10/30 00:18:38;;;;;;;7.88;3.03;;;;;;;9.36;nan;100529.47;5017152;28;20053;-69
2023/10/30 00:21:04;;;;;;;5.13;3.22;;;;;;;9.47;nan;100541.94;5019186;28;20123;-70
2023/10/30 00:23:30;;;;;;;6.88;3.22;;;;;;;9.48;nan;100548.00;5025399;28;20036;-69
2023/10/30 00:25:56;;;;;;;7.20;3.60;;;;;;;9.36;nan;100530.31;5021635;28;20030;-69
2023/10/30 00:28:21;;;;;;;5.55;3.05;;;;;;;9.36;nan;100532.09;5018155;28;20425;-70
2023/10/30 00:30:46;;;;;;;7.63;2.83;;;;;;;9.40;nan;100553.53;5014431;28;20083;-68
2023/10/30 00:33:13;;;;;;;8.07;3.20;;;;;;;9.41;nan;100548.06;5014635;28;20021;-69
2023/10/30 00:35:38;;;;;;;7.60;2.70;;;;;;;9.43;nan;100548.63;5019457;28;20411;-69
2023/10/30 00:38:03;;;;;;;4.55;2.80;;;;;;;9.41;nan;100540.19;5018648;28;20034;-70
2023/10/30 00:40:29;;;;;;;6.50;2.75;;;;;;;9.46;nan;100556.13;5021913;28;20642;-71
2023/10/30 00:42:54;;;;;;;3.85;2.50;;;;;;;9.47;nan;100547.19;5017922;28;20120;-69
2023/10/30 00:45:20;;;;;;;6.85;2.72;;;;;;;9.51;nan;100552.84;5019696;28;20120;-69
2023/10/30 00:47:45;;;;;;;11.35;2.95;;;;;;;9.53;nan;100556.88;5017630;28;20075;-70
2023/10/30 00:50:11;;;;;;;5.68;2.83;;;;;;;9.47;nan;100547.19;5015730;28;20064;-69
2023/10/30 00:52:36;;;;;;;11.90;2.70;;;;;;;9.38;nan;100532.69;5014377;28;20490;-73
2023/10/30 00:55:02;;;;;;;6.20;2.53;;;;;;;9.40;nan;100540.38;5019592;28;20033;-72
2023/10/30 00:57:28;;;;;;;7.97;2.65;;;;;;;9.46;nan;100556.13;5017726;28;20029;-72
2023/10/30 00:59:54;;;;;;;5.45;2.50;;;;;;;9.47;nan;100552.44;5017337;28;20072;-73
2023/10/30 01:02:19;;;;;;;7.03;2.60;;;;;;;9.42;nan;100549.66;5023620;28;20109;-73
2023/10/30 01:04:45;;;;;;;8.70;2.80;;;;;;;9.48;nan;100564.59;5021383;28;20060;-73
2023/10/30 01:07:10;;;;;;;5.10;2.88;;;;;;;9.39;nan;100547.47;5018395;28;20049;-72
2023/10/30 01:09:35;;;;;;;9.15;2.40;;;;;;;9.48;nan;100563.75;5017271;28;20121;-72
2023/10/30 01:12:01;;;;;;;5.72;2.85;;;;;;;9.45;nan;100557.13;5015273;28;20408;-73
2023/10/30 01:14:26;;;;;;;6.88;2.38;;;;;;;9.44;nan;100558.16;5022822;28;20041;-73
2023/10/30 01:16:52;;;;;;;7.93;2.75;;;;;;;9.47;nan;100554.28;5015032;28;20498;-73
2023/10/30 01:19:17;;;;;;;6.68;2.83;;;;;;;9.48;nan;100567.22;5016411;28;20532;-73
2023/10/30 01:21:43;;;;;;;4.85;2.60;;;;;;;9.39;nan;100552.72;5014444;28;20474;-73
2023/10/30 01:24:09;;;;;;;5.75;2.63;;;;;;;9.41;nan;100561.22;5017020;28;20053;-73
2023/10/30 01:26:35;;;;;;;6.38;3.22;;;;;;;9.36;nan;100558.38;5018360;28;20057;-74
2023/10/30 01:29:00;;;;;;;6.47;2.80;;;;;;;9.40;nan;100567.47;5015319;28;20475;-72
2023/10/30 01:31:27;;;;;;;5.28;2.70;;;;;;;9.36;nan;100569.72;5016660;28;20013;-72
2023/10/30 01:33:56;;;;;;;4.75;2.65;;;;;;;9.34;nan;100573.59;5015631;28;20133;-72
2023/10/30 01:36:22;;;;;;;4.70;2.50;;;;;;;9.22;nan;100575.25;5016641;28;20041;-72
2023/10/30 01:38:48;;;;;;;6.15;2.53;;;;;;;8.87;nan;100554.66;5017435;28;20345;-72
2023/10/30 01:41:13;;;;;;;4.57;2.58;;;;;;;8.87;nan;100565.94;5015028;28;20472;-69
2023/10/30 01:43:39;;;;;;;7.80;3.10;;;;;;;8.85;nan;100562.72;5011172;28;20033;-69
2023/10/30 01:46:05;;;;;;;7.10;2.72;;;;;;;8.88;nan;100564.94;5022696;28;20029;-70
2023/10/30 01:48:33;;;;;;;4.18;2.80;;;;;;;8.91;nan;100561.09;5015834;28;20029;-68
2023/10/30 01:50:59;;;;;;;5.05;2.67;;;;;;;9.02;nan;100575.38;5013736;28;20049;-70
2023/10/30 01:53:26;;;;;;;4.07;2.28;;;;;;;8.96;nan;100574.41;5014533;28;20072;-67
2023/10/30 01:55:52;;;;;;;4.57;2.78;;;;;;;8.97;nan;100581.25;5017410;28;20036;-69
2023/10/30 01:58:18;;;;;;;6.20;2.50;;;;;;;8.96;nan;100566.53;5018593;28;20021;-69
2023/10/30 02:00:45;;;;;;;5.07;2.28;;;;;;;8.93;nan;100575.63;5014670;28;20026;-68
2023/10/30 02:03:11;;;;;;;6.05;2.78;;;;;;;8.90;nan;100575.22;5012357;28;20033;-69
2023/10/30 02:05:37;;;;;;;5.15;2.80;;;;;;;8.85;nan;100564.53;5013741;28;20076;-69
2023/10/30 02:08:03;;;;;;;5.93;2.80;;;;;;;8.94;nan;100573.81;5019368;28;20457;-68
2023/10/30 02:10:28;;;;;;;8.77;2.97;;;;;;;8.87;nan;100562.53;5014595;28;20029;-68
2023/10/30 02:12:53;;;;;;;7.18;3.20;;;;;;;8.89;nan;100569.19;5013903;28;20145;-68
2023/10/30 02:15:19;;;;;;;8.57;3.60;;;;;;;8.85;nan;100561.94;5016328;28;20060;-70
2023/10/30 02:17:44;;;;;;;7.30;3.58;;;;;;;8.72;nan;100545.22;5013285;28;20040;-70
2023/10/30 02:20:13;;;;;;;8.00;3.78;;;;;;;8.77;nan;100549.84;5017612;28;20088;-71
2023/10/30 02:22:39;;;;;;;6.60;3.15;;;;;;;8.76;nan;100547.41;5015954;28;20052;-71
2023/10/30 02:25:05;;;;;;;7.40;3.20;;;;;;;8.87;nan;100567.78;5015916;28;20483;-71
2023/10/30 02:27:31;;;;;;;6.60;2.80;;;;;;;8.83;nan;100550.81;5013798;28;20052;-70
2023/10/30 02:29:57;;;;;;;4.78;2.60;;;;;;;8.92;nan;100576.63;5014362;28;20014;-71
2023/10/30 02:32:23;;;;;;;11.18;3.03;;;;;;;8.94;nan;100576.44;5013861;28;20036;-71
2023/10/30 02:34:48;;;;;;;3.97;2.60;;;;;;;8.99;nan;100581.06;5015482;28;20022;-71
2023/10/30 02:37:14;;;;;;;7.90;2.78;;;;;;;8.80;nan;100543.38;5014262;28;20419;-71
2023/10/30 02:39:40;;;;;;;4.38;2.65;;;;;;;8.93;nan;100553.78;5023314;28;20022;-71
2023/10/30 02:42:06;;;;;;;6.88;2.80;;;;;;;9.07;nan;100573.72;5011923;28;20026;-71
2023/10/30 02:44:32;;;;;;;5.40;2.88;;;;;;;9.08;nan;100575.34;5013747;28;20057;-68
2023/10/30 02:46:57;;;;;;;7.47;2.90;;;;;;;9.10;nan;100575.16;5011454;28;20057;-68
2023/10/30 02:49:23;;;;;;;8.98;3.13;;;;;;;9.00;nan;100551.13;5013389;28;20156;-69
2023/10/30 02:51:49;;;;;;;5.35;3.00;;;;;;;9.10;nan;100564.63;5013554;28;20037;-67
2023/10/30 02:54:14;;;;;;;6.05;3.00;;;;;;;9.05;nan;100560.00;5021218;28;20036;-69
2023/10/30 02:56:39;;;;;;;10.13;3.42;;;;;;;9.05;nan;100564.44;5015223;28;20022;-69
2023/10/30 02:59:05;;;;;;;8.27;2.78;;;;;;;9.02;nan;100562.25;5015624;28;20023;-67
2023/10/30 03:01:31;;;;;;;6.50;3.42;;;;;;;9.06;nan;100573.94;5013972;28;20105;-68
2023/10/30 03:03:57;;;;;;;6.70;3.50;;;;;;;9.10;nan;100575.94;5016297;28;20124;-67
2023/10/30 03:06:22;;;;;;;8.80;2.88;;;;;;;9.04;nan;100561.00;5012919;28;20092;-68
2023/10/30 03:08:48;;;;;;;12.38;3.53;;;;;;;9.15;nan;100567.44;5016740;28;20474;-66
2023/10/30 03:11:13;;;;;;;5.15;2.78;;;;;;;9.12;nan;100552.06;5014346;28;20527;-69
2023/10/30 03:13:38;;;;;;;5.50;2.30;;;;;;;9.12;nan;100557.31;5014945;28;20029;-68
2023/10/30 03:16:04;;;;;;;6.55;3.22;;;;;;;9.22;nan;100573.47;5014742;28;20025;-68
2023/10/30 03:18:30;;;;;;;4.57;2.60;;;;;;;9.23;nan;100569.78;5015762;28;20160;-68
2023/10/30 03:20:56;;;;;;;5.38;2.38;;;;;;;9.20;nan;100572.06;5018590;28;20030;-68
2023/10/30 03:23:21;;;;;;;5.80;2.60;;;;;;;9.20;nan;100569.44;5012529;28;20025;-69
2023/10/30 03:25:47;;;;;;;7.15;2.50;;;;;;;9.26;nan;100585.13;5014393;28;20560;-68
2023/10/30 03:28:12;;;;;;;5.07;2.90;;;;;;;9.20;nan;100572.84;5013985;28;20025;-69
2023/10/30 03:30:38;;;;;;;7.78;2.95;;;;;;;9.26;nan;100582.50;5011929;28;20442;-69
2023/10/30 03:33:04;;;;;;;7.22;2.67;;;;;;;9.18;nan;100564.38;5012601;28;20471;-67
2023/10/30 03:35:30;;;;;;;6.88;2.95;;;;;;;9.18;nan;100577.50;5013362;28;20147;-69
2023/10/30 03:37:56;;;;;;;7.88;2.90;;;;;;;8.97;nan;100565.50;5011972;28;20059;-69
2023/10/30 03:40:21;;;;;;;7.70;2.63;;;;;;;8.88;nan;100564.94;5011593;28;20021;-67
2023/10/30 03:42:47;;;;;;;4.68;2.58;;;;;;;8.93;nan;100587.94;5014227;28;20029;-69
2023/10/30 03:45:13;;;;;;;12.07;6.40;;;;;;;9.06;nan;100587.88;5017995;28;20104;-70
2023/10/30 03:47:38;;;;;;;8.60;4.20;;;;;;;9.15;nan;100581.38;5018067;28;20115;-69
2023/10/30 03:50:06;;;;;;;7.90;3.22;;;;;;;9.09;nan;100581.41;5017331;28;20155;-70
2023/10/30 03:52:31;;;;;;;7.10;3.10;;;;;;;9.06;nan;100587.88;5017450;28;20034;-69
2023/10/30 03:55:03;;;;;;;7.00;3.50;;;;;;;9.00;nan;100577.41;5018199;28;20034;-72
2023/10/30 03:57:29;;;;;;;9.02;3.20;;;;;;;9.03;nan;100577.00;5025235;28;20570;-72
2023/10/30 03:59:54;;;;;;;7.65;4.05;;;;;;;8.80;nan;100544.16;5022918;28;20026;-72
2023/10/30 04:02:19;;;;;;;7.03;3.55;;;;;;;8.94;nan;100571.97;5021090;28;20013;-72
2023/10/30 04:04:45;;;;;;;12.50;3.50;;;;;;;9.01;nan;100582.47;5019199;28;20104;-71
2023/10/30 04:07:10;;;;;;;7.53;3.60;;;;;;;8.89;nan;100560.50;5018549;28;20403;-71
2023/10/30 04:09:36;;;;;;;6.60;3.30;;;;;;;8.95;nan;100580.66;5016709;28;20033;-70
2023/10/30 04:12:02;;;;;;;8.57;3.72;;;;;;;8.82;nan;100562.34;5018631;28;20037;-71
2023/10/30 04:14:31;;;;;;;8.23;3.30;;;;;;;8.90;nan;100588.34;5018247;28;20029;-72
2023/10/30 04:16:58;;;;;;;7.13;3.15;;;;;;;8.87;nan;100583.53;5019231;28;20025;-71
2023/10/30 04:19:23;;;;;;;10.43;3.17;;;;;;;8.88;nan;100579.88;5018116;28;20435;-71
2023/10/30 04:21:49;;;;;;;9.43;3.70;;;;;;;8.76;nan;100571.03;5019490;28;20060;-70
2023/10/30 04:24:14;;;;;;;8.40;3.58;;;;;;;8.71;nan;100562.00;5024960;28;20120;-72
2023/10/30 04:26:39;;;;;;;7.13;3.13;;;;;;;8.71;nan;100564.63;5016073;28;20029;-72
2023/10/30 04:29:05;;;;;;;6.32;3.10;;;;;;;8.70;nan;100551.69;5012794;28;20029;-72
2023/10/30 04:31:30;;;;;;;5.78;2.90;;;;;;;8.80;nan;100567.00;5015240;28;20314;-71
2023/10/30 04:33:56;;;;;;;7.55;3.20;;;;;;;8.63;nan;100538.59;5016298;28;20021;-72
2023/10/30 04:36:21;;;;;;;11.07;5.28;;;;;;;8.81;nan;100568.59;5024091;28;20049;-71
2023/10/30 04:38:47;;;;;;;11.25;4.43;;;;;;;8.63;nan;100524.66;5014136;28;20108;-71
2023/10/30 04:41:12;;;;;;;7.80;3.70;;;;;;;8.77;nan;100543.78;5017826;28;20100;-72
2023/10/30 04:43:38;;;;;;;7.15;3.20;;;;;;;8.71;nan;100543.63;5018233;28;20022;-71
2023/10/30 04:46:03;;;;;;;5.38;2.97;;;;;;;8.83;nan;100558.69;5016797;28;20030;-72
2023/10/30 04:48:31;;;;;;;6.85;2.92;;;;;;;8.82;nan;100555.28;5017049;28;20450;-71
2023/10/30 04:50:57;;;;;;;8.63;2.92;;;;;;;8.81;nan;100547.59;5016065;28;20112;-68
2023/10/30 04:53:22;;;;;;;10.93;3.30;;;;;;;8.92;nan;100554.81;5019112;28;20113;-69
2023/10/30 04:55:51;;;;;;;6.25;3.08;;;;;;;8.94;nan;100560.66;5018444;28;20026;-69
2023/10/30 04:58:17;;;;;;;13.33;3.03;;;;;;;8.92;nan;100550.38;5017282;28;20080;-68
2023/10/30 05:00:43;;;;;;;6.45;3.10;;;;;;;8.91;nan;100559.28;5015512;28;20487;-68
2023/10/30 05:03:12;;;;;;;6.50;3.00;;;;;;;8.92;nan;100545.13;5017105;28;20040;-69
2023/10/30 05:05:37;;;;;;;9.63;3.85;;;;;;;8.98;nan;100553.16;5016188;28;20619;-69
2023/10/30 05:08:03;;;;;;;8.07;3.15;;;;;;;8.97;nan;100552.38;5015711;28;20026;-69
2023/10/30 05:10:28;;;;;;;11.45;3.33;;;;;;;8.99;nan;100552.97;5017697;28;20037;-69
2023/10/30 05:12:54;;;;;;;5.13;2.83;;;;;;;8.95;nan;100546.50;5020668;28;20029;-67
2023/10/30 05:15:21;;;;;;;6.43;2.90;;;;;;;8.66;nan;100504.03;5018651;28;20022;-69
2023/10/30 05:17:46;;;;;;;7.65;3.08;;;;;;;9.01;nan;100558.03;5014486;28;20026;-68
2023/10/30 05:20:12;;;;;;;9.23;4.03;;;;;;;8.88;nan;100553.63;5014253;28;20033;-70
2023/10/30 05:22:38;;;;;;;12.60;5.38;;;;;;;8.82;nan;100562.34;5015367;28;20484;-68
2023/10/30 05:25:05;;;;;;;19.05;7.30;;;;;;;8.80;nan;100567.00;5014320;28;20129;-70
2023/10/30 05:27:31;;;;;;;22.00;6.32;;;;;;;8.79;nan;100563.56;5017348;28;20057;-69
2023/10/30 05:29:57;;;;;;;17.58;5.22;;;;;;;8.80;nan;100570.41;5017055;28;20025;-69
2023/10/30 05:32:22;;;;;;;10.05;4.38;;;;;;;8.86;nan;100581.91;5016832;28;20575;-70
2023/10/30 05:34:48;;;;;;;10.57;4.07;;;;;;;8.89;nan;100573.63;5017903;28;20022;-68
2023/10/30 05:37:14;;;;;;;14.27;4.00;;;;;;;8.71;nan;100543.63;5015007;28;20137;-68
2023/10/30 05:39:40;;;;;;;7.28;3.38;;;;;;;8.91;nan;100574.22;5013160;28;20033;-68
2023/10/30 05:42:06;;;;;;;8.30;4.22;;;;;;;8.84;nan;100555.88;5016758;28;20132;-67
2023/10/30 05:44:32;;;;;;;21.80;4.63;;;;;;;8.84;nan;100555.88;5015376;28;20025;-68
2023/10/30 05:46:58;;;;;;;21.88;4.47;;;;;;;8.88;nan;100558.88;5021552;28;20065;-68
2023/10/30 05:49:25;;;;;;;19.83;4.97;;;;;;;8.86;nan;100551.22;5022739;28;20030;-68
2023/10/30 05:51:51;;;;;;;21.00;4.40;;;;;;;8.86;nan;100555.66;5014736;28;20072;-67
2023/10/30 05:54:16;;;;;;;10.95;4.53;;;;;;;8.89;nan;100560.50;5021262;28;20029;-68
2023/10/30 05:56:42;;;;;;;15.60;4.32;;;;;;;8.94;nan;100563.31;5017630;28;20490;-69
2023/10/30 05:59:07;;;;;;;11.30;4.30;;;;;;;9.00;nan;100572.94;5015474;28;20033;-67
2023/10/30 06:01:34;;;;;;;9.90;4.28;;;;;;;8.90;nan;100551.59;5018616;28;20792;-69
2023/10/30 06:03:59;;;;;;;7.75;3.80;;;;;;;9.08;nan;100569.28;5014686;28;20108;-68
2023/10/30 06:06:25;;;;;;;13.63;4.50;;;;;;;9.13;nan;100575.53;5013477;28;20048;-69
2023/10/30 06:08:50;;;;;;;13.32;4.60;;;;;;;9.21;nan;100573.66;5013032;28;20029;-68
2023/10/30 06:11:16;;;;;;;13.57;4.40;;;;;;;9.27;nan;100575.44;5013971;28;20052;-68
2023/10/30 06:13:42;;;;;;;12.63;4.57;;;;;;;9.31;nan;100569.56;5012423;28;20026;-68
2023/10/30 06:16:13;;;;;;;9.88;4.60;;;;;;;9.47;nan;100593.72;5014306;28;20456;-69
2023/10/30 06:18:39;;;;;;;11.82;3.95;;;;;;;9.43;nan;100577.53;5012167;28;20499;-70
2023/10/30 06:21:07;;;;;;;9.15;3.97;;;;;;;9.56;nan;100597.69;5016204;28;20157;-68
2023/10/30 06:23:35;;;;;;;10.93;3.90;;;;;;;9.62;nan;100585.50;5015251;28;20112;-68
2023/10/30 06:26:07;;;;;;;8.77;4.30;;;;;;;9.67;nan;100575.16;5014323;28;20035;-67
2023/10/30 06:28:32;;;;;;;10.50;3.75;;;;;;;9.83;nan;100590.41;5013804;28;20041;-67
2023/10/30 06:30:59;;;;;;;9.85;4.07;;;;;;;9.95;nan;100593.94;5015160;28;20103;-69
2023/10/30 06:33:25;;;;;;;13.40;4.43;;;;;;;9.94;nan;100584.44;5011878;28;20022;-68
2023/10/30 06:36:00;;;;;;;9.60;4.15;;;;;;;10.10;nan;100600.69;5015304;28;20081;-69
2023/10/30 06:38:25;;;;;;;8.35;4.03;;;;;;;10.15;nan;100590.31;5010204;28;20112;-69
2023/10/30 06:40:51;;;;;;;9.23;4.20;;;;;;;10.26;nan;100597.50;5014111;28;20141;-69
2023/10/30 06:43:16;;;;;;;13.52;3.78;;;;;;;10.35;nan;100601.50;5016966;28;20142;-68
2023/10/30 06:45:41;;;;;;;10.80;3.88;;;;;;;10.44;nan;100602.03;5019280;28;20029;-69
2023/10/30 06:48:07;;;;;;;6.75;3.40;;;;;;;10.53;nan;100605.16;5014557;28;20041;-68
2023/10/30 06:50:33;;;;;;;10.88;3.95;;;;;;;10.58;nan;100590.34;5015419;28;20025;-68
2023/10/30 06:52:58;;;;;;;8.90;4.43;;;;;;;10.67;nan;100596.09;5012923;28;20075;-68
2023/10/30 06:55:23;;;;;;;10.18;5.22;;;;;;;10.79;nan;100606.69;5016818;28;20034;-68
2023/10/30 06:57:49;;;;;;;11.38;4.85;;;;;;;10.81;nan;100588.84;5016354;28;20029;-68
2023/10/30 07:00:14;;;;;;;13.43;5.28;;;;;;;10.99;nan;100598.53;5015126;28;20124;-69
2023/10/30 07:02:41;;;;;;;11.55;5.30;;;;;;;10.98;nan;100584.56;5013678;28;20033;-68
2023/10/30 07:05:06;;;;;;;10.93;5.07;;;;;;;11.07;nan;100585.84;5013894;28;20030;-69
2023/10/30 07:07:32;;;;;;;11.73;4.80;;;;;;;11.25;nan;100594.75;5015154;28;20068;-67
2023/10/30 07:09:57;;;;;;;10.95;5.05;;;;;;;11.34;nan;100596.03;5012570;28;20026;-68
2023/10/30 07:12:23;;;;;;;15.40;6.95;;;;;;;11.37;nan;100586.88;5014381;28;20100;-68
2023/10/30 07:14:48;;;;;;;12.60;6.60;;;;;;;;;;5015287;28;20033;-68
2023/10/30 07:17:14;;;;;;;15.40;6.40;;;;;;;;;;5016213;28;20087;-68
2023/10/30 07:19:39;;;;;;;16.23;5.65;;;;;;;;;;5017730;28;20278;-68
2023/10/30 07:22:05;;;;;;;14.25;4.90;;;;;;;;;;5017789;28;20022;-68
2023/10/30 07:24:30;;;;;;;13.00;4.80;;;;;;;;;;5017613;28;20025;-70
2023/10/30 07:26:57;;;;;;;13.30;4.78;;;;;;;;;;5017070;28;20029;-67
2023/10/30 07:29:23;;;;;;;13.57;5.38;;;;;;;;;;5019967;28;20068;-68
2023/10/30 07:31:48;;;;;;;10.05;4.95;;;;;;;;;;5016396;28;20087;-69
2023/10/30 07:34:14;;;;;;;12.13;5.10;;;;;;;;;;5018574;28;20460;-68
2023/10/30 07:36:39;;;;;;;18.35;5.93;;;;;;;;;;5025577;28;20286;-68
2023/10/30 07:39:07;;;;;;;13.95;5.30;;;;;;;;;;5015754;28;20123;-68
2023/10/30 07:41:32;;;;;;;14.98;4.90;;;;;;;;;;5020694;28;20022;-74
2023/10/30 07:43:58;;;;;;;16.53;5.43;;;;;;;;;;5014904;28;20498;-74
2023/10/30 07:46:23;;;;;;;17.40;5.75;;;;;;;;;;5018651;28;20297;-74
2023/10/30 07:48:49;;;;;;;13.88;5.50;;;;;;;;;;5014786;28;20379;-74
2023/10/30 07:51:14;;;;;;;12.93;4.63;;;;;;;;;;5016062;28;20419;-74
2023/10/30 07:53:39;;;;;;;23.67;5.50;;;;;;;;;;5015872;28;20028;-74
2023/10/30 07:56:05;;;;;;;18.48;5.55;;;;;;;;;;5018817;28;20068;-73
2023/10/30 07:58:31;;;;;;;10.57;4.53;;;;;;;;;;5017976;28;20026;-74
2023/10/30 08:00:57;;;;;;;11.88;4.80;;;;;;;;;;5018104;28;20112;-74
2023/10/30 08:03:22;;;;;;;8.35;4.40;;;;;;;;;;5017415;28;20658;-74
2023/10/30 08:05:48;;;;;;;9.63;4.50;;;;;;;;;;5017778;28;20038;-74
2023/10/30 08:08:16;;;;;;;9.77;3.93;;;;;;;;;;5018116;28;20486;-73
2023/10/30 08:10:42;;;;;;;13.10;4.05;;;;;;;;;;5025289;28;20044;-73
2023/10/30 08:13:07;;;;;;;11.40;3.70;;;;;;;;;;5016372;28;20109;-73
2023/10/30 08:15:32;;;;;;;10.40;3.30;;;;;;;;;;5020309;28;20267;-74
2023/10/30 08:17:57;;;;;;;9.53;2.97;;;;;;;;;;5025307;28;20373;-73
2023/10/30 08:20:23;;;;;;;7.47;2.70;;;;;;;;;;5018832;28;20028;-72
2023/10/30 08:22:48;;;;;;;8.33;2.90;;;;;;;;;;5021981;28;20029;-73
2023/10/30 08:25:13;;;;;;;6.33;2.53;;;;;;;;;;5018712;28;20274;-74
2023/10/30 08:27:39;;;;;;;6.90;2.50;;;;;;;;;;5018223;28;20267;-73
2023/10/30 08:30:06;;;;;;;7.13;3.00;;;;;;;;;;5015597;28;20029;-74
2023/10/30 08:32:31;;;;;;;7.88;2.38;;;;;;;;;;5025051;28;20029;-73
2023/10/30 08:34:56;;;;;;;5.38;2.50;;;;;;;;;;5022839;28;20034;-73
2023/10/30 08:37:22;;;;;;;10.30;2.50;;;;;;;;;;5017302;28;20030;-75
2023/10/30 08:39:47;;;;;;;8.50;2.27;;;;;;;;;;5014096;28;20022;-75
2023/10/30 08:42:12;;;;;;;5.03;2.47;;;;;;;;;;5016823;28;20025;-75
2023/10/30 08:44:37;;;;;;;9.00;2.40;;;;;;;;;;5015622;28;20415;-75
2023/10/30 08:47:03;;;;;;;8.45;2.33;;;;;;;;;;5017031;28;20057;-75
2023/10/30 08:49:28;;;;;;;5.47;2.30;;;;;;;;;;5015326;28;20021;-75
2023/10/30 08:51:54;;;;;;;7.25;2.35;;;;;;;;;;5017378;28;20096;-73
2023/10/30 08:54:19;;;;;;;6.60;2.20;;;;;;;;;;5018241;28;20021;-74
2023/10/30 08:56:44;;;;;;;4.50;1.98;;;;;;;;;;5014954;28;20108;-74
2023/10/30 08:59:10;;;;;;;4.63;2.03;;;;;;;;;;5017063;28;20143;-75
2023/10/30 09:01:35;;;;;;;4.33;1.80;;;;;;;;;;5017822;28;20025;-74
2023/10/30 09:04:00;;;;;;;4.47;2.00;;;;;;;;;;5015154;28;20302;-75
2023/10/30 09:06:29;;;;;;;10.20;2.45;;;;;;;;;;5017109;28;20382;-74
2023/10/30 09:08:54;;;;;;;8.87;2.77;;;;;;;;;;5015402;28;20499;-74
2023/10/30 09:11:20;;;;;;;7.07;1.88;;;;;;;18.57;nan;100610.13;5017752;28;20025;-74
2023/10/30 09:13:45;;;;;;;5.32;2.22;;;;;;;;;;5016164;28;20025;-74
2023/10/30 09:16:11;;;;;;;7.32;2.50;;;;;;;;;;5023208;28;20014;-76
2023/10/30 09:18:36;;;;;;;6.80;2.03;;;;;;;;;;5015416;28;20518;-74
2023/10/30 09:21:02;;;;;;;2.50;1.47;;;;;;;;;;5016575;28;20025;-72
2023/10/30 09:23:27;;;;;;;5.18;2.10;;;;;;;;;;5017521;28;20274;-71
2023/10/30 09:25:52;;;;;;;7.47;2.43;;;;;;;;;;5016901;28;20136;-69
2023/10/30 09:28:18;;;;;;;8.53;2.03;;;;;;;;;;5016354;28;20106;-68
2023/10/30 09:30:44;;;;;;;7.60;2.10;;;;;;;;;;5018000;28;20496;-68
2023/10/30 09:33:09;;;;;;;9.88;2.45;;;;;;;;;;5017608;28;20060;-69
2023/10/30 09:35:35;;;;;;;6.72;2.30;;;;;;;;;;5013958;28;20049;-68
2023/10/30 09:38:00;;;;;;;5.10;2.08;;;;;;;;;;5014772;28;20045;-69
2023/10/30 09:40:26;;;;;;;5.25;2.08;;;;;;;;;;5016956;28;20017;-68
2023/10/30 09:42:52;;;;;;;5.28;2.00;;;;;;;;;;5015798;28;20109;-69
2023/10/30 09:45:22;;;;;;;6.13;2.40;;;;;;;18.98;nan;100580.59;5016345;28;20033;-69
2023/10/30 09:47:48;;;;;;;7.03;2.13;;;;;;;;;;5014365;28;20022;-68
2023/10/30 09:50:14;;;;;;;4.43;2.10;;;;;;;;;;5015793;28;20037;-70
2023/10/30 09:52:40;;;;;;;5.47;2.00;;;;;;;19.09;nan;100526.09;5017073;28;20871;-68
2023/10/30 09:55:11;;;;;;;7.85;2.22;;;;;;;19.13;nan;100561.84;5015933;28;20047;-67
2023/10/30 09:57:37;;;;;;;5.90;2.45;;;;;;;19.16;nan;100504.44;5022017;28;20022;-69
2023/10/30 10:00:03;;;;;;;6.43;2.13;;;;;;;19.22;nan;100497.97;5012846;28;20045;-70
2023/10/30 10:02:28;;;;;;;4.82;1.90;;;;;;;19.38;nan;100495.97;5012980;28;20053;-68
2023/10/30 10:04:56;;;;;;;5.00;2.28;;;;;;;19.52;nan;100479.00;5016091;28;20036;-69
2023/10/30 10:07:22;;;;;;;4.07;1.90;;;;;;;19.62;nan;100499.47;5014870;28;20061;-68
2023/10/30 10:10:00;;;;;;;8.52;2.30;;;;;;;;;;5014169;28;20099;-68
2023/10/30 10:12:26;;;;;;;4.82;2.22;;;;;;;19.95;nan;100513.03;5015224;28;20559;-67
2023/10/30 10:14:52;;;;;;;6.18;2.20;;;;;;;;;;5023270;28;20029;-68
2023/10/30 10:17:17;;;;;;;7.70;2.20;;;;;;;;;;5015324;28;20632;-68
2023/10/30 10:19:46;;;;;;;3.40;1.70;;;;;;;20.36;nan;100494.63;5012841;28;20069;-68
2023/10/30 10:22:26;;;;;;;5.82;2.05;;;;;;;20.52;nan;100494.41;5013414;28;20346;-68
2023/10/30 10:24:52;;;;;;;7.43;2.15;;;;;;;20.64;nan;100492.13;5015437;28;20033;-67
2023/10/30 10:27:19;;;;;;;4.72;1.88;;;;;;;;;;5013764;28;20032;-68
2023/10/30 10:29:44;;;;;;;7.70;1.90;;;;;;;20.72;nan;100488.00;5015403;28;20032;-67
2023/10/30 10:32:11;;;;;;;6.88;2.40;;;;;;;20.79;nan;100475.06;5015416;28;20033;-68
2023/10/30 10:34:37;;;;;;;7.43;2.35;;;;;;;20.79;nan;100531.25;5014648;28;20033;-68
2023/10/30 10:37:03;;;;;;;10.00;2.15;;;;;;;;;;5012687;28;20045;-68
2023/10/30 10:39:44;;;;;;;4.35;2.00;;;;;;;;;;5016239;28;20045;-69
2023/10/30 10:42:10;;;;;;;6.60;2.30;;;;;;;20.98;nan;100493.75;5013796;28;20387;-68
2023/10/30 10:44:35;;;;;;;6.50;2.20;;;;;;;21.01;nan;100552.06;5015792;28;20046;-68
2023/10/30 10:47:01;;;;;;;5.90;2.47;;;;;;;21.03;nan;100489.13;5015629;28;20050;-68
2023/10/30 10:49:26;;;;;;;8.77;2.13;;;;;;;21.11;nan;100484.19;5014571;28;20028;-67
2023/10/30 10:51:53;;;;;;;3.25;1.80;;;;;;;21.18;nan;100447.09;5013234;28;20029;-68
2023/10/30 10:54:24;;;;;;;4.22;2.00;;;;;;;21.24;nan;100470.03;5014451;28;20025;-68
2023/10/30 10:56:52;;;;;;;5.90;2.10;;;;;;;21.25;nan;100424.19;5014166;28;20030;-74
2023/10/30 10:59:21;;;;;;;7.85;2.13;;;;;;;21.29;nan;100459.22;5029180;28;20029;-73
2023/10/30 11:01:51;;;;;;;8.33;2.00;;;;;;;21.31;nan;100441.00;5021334;28;20027;-75
2023/10/30 11:04:16;;;;;;;14.10;2.40;;;;;;;;;;5010398;28;20427;-74
2023/10/30 11:06:48;;;;;;;10.27;2.13;;;;;;;21.33;nan;100478.97;5013361;28;20033;-73
2023/10/30 11:09:47;;;;;;;4.78;1.88;;;;;;;21.34;nan;100448.44;5014452;28;20018;-73
2023/10/30 11:12:35;;;;;;;9.30;2.20;;;;;;;21.36;nan;100445.47;5013569;28;20060;-71
2023/10/30 11:15:30;;;;;;;5.35;2.10;;;;;;;21.37;nan;100444.34;5015575;28;20022;-70
2023/10/30 11:18:28;;;;;;;6.03;2.30;;;;;;;21.39;nan;100418.88;5014054;28;20510;-71
2023/10/30 11:21:09;;;;;;;7.25;2.00;;;;;;;21.42;nan;100430.91;5001889;28;20061;-72
2023/10/30 11:23:44;;;;;;;7.88;2.30;;;;;;;21.49;nan;100450.06;5012241;28;20492;-71
2023/10/30 11:26:10;;;;;;;7.53;2.22;;;;;;;21.52;nan;100392.41;5014017;28;20034;-70
2023/10/30 11:28:37;;;;;;;9.90;2.50;;;;;;;21.59;nan;100441.03;5015486;28;20029;-71
2023/10/30 11:31:11;;;;;;;6.53;2.10;;;;;;;21.58;nan;100369.78;5015312;28;20029;-72
2023/10/30 11:33:36;;;;;;;6.38;2.13;;;;;;;21.62;nan;100427.84;5012084;28;20065;-71
2023/10/30 11:36:18;;;;;;;5.88;2.35;;;;;;;21.70;nan;100430.91;5011928;28;20124;-73
2023/10/30 11:38:59;;;;;;;6.30;2.10;;;;;;;21.74;nan;100419.31;5011029;28;20045;-74
2023/10/30 11:41:24;;;;;;;4.38;1.75;;;;;;;21.71;nan;100445.88;5020516;28;20065;-74
2023/10/30 11:43:50;;;;;;;9.82;2.22;;;;;;;21.80;nan;100428.03;5012919;28;20431;-73
2023/10/30 11:46:21;;;;;;;7.03;1.70;;;;;;;21.81;nan;100408.16;5013269;28;20087;-73
2023/10/30 11:48:48;;;;;;;3.03;1.60;;;;;;;21.81;nan;100408.97;5016370;28;20391;-75
2023/10/30 11:51:13;;;;;;;5.75;1.80;;;;;;;21.64;nan;100384.66;5012631;28;20848;-74
2023/10/30 11:53:42;;;;;;;5.97;2.05;;;;;;;21.90;nan;100400.22;5014706;28;20022;-74
2023/10/30 11:56:08;;;;;;;4.03;1.60;;;;;;;21.91;nan;100444.69;5013857;28;20072;-74
2023/10/30 11:58:34;;;;;;;5.00;1.83;;;;;;;21.96;nan;100404.38;5011001;28;20106;-75
2023/10/30 12:01:00;;;;;;;6.13;1.70;;;;;;;21.99;nan;100449.34;5015891;28;20057;-74
2023/10/30 12:03:25;;;;;;;5.40;1.90;;;;;;;22.11;nan;100373.75;5011940;28;20033;-73
2023/10/30 12:05:51;;;;;;;3.88;1.60;;;;;;;22.16;nan;100417.34;5017515;28;20361;-74
2023/10/30 12:08:17;;;;;;;7.70;1.83;;;;;;;22.18;nan;100382.97;5017596;28;20039;-74
2023/10/30 12:10:43;;;;;;;7.35;2.25;;;;;;;22.20;nan;100353.97;5015666;28;20476;-75
2023/10/30 12:13:10;;;;;;;3.35;1.63;;;;;;;22.27;nan;100364.28;5020196;28;20036;-74
2023/10/30 12:15:35;;;;;;;4.05;1.67;;;;;;;22.30;nan;100308.13;5017178;28;20369;-74
2023/10/30 12:18:03;;;;;;;5.70;1.95;;;;;;;22.37;nan;100339.13;5013974;28;20079;-75